sensor_id;sensor_type;location;lat;lon;timestamp;P1;durP1;ratioP1;P2;durP2;ratioP2
3801;SDS011;1916;51.798;12.246;2024-03-22T00:01:32;19.10;;;13.33;;
3801;SDS011;1916;51.798;12.246;2024-03-22T00:03:34;26.53;;;14.90;;
3801;SDS011;1916;51.798;12.246;2024-03-22T00:05:35;23.63;;;15.50;;
3801;SDS011;1916;51.798;12.246;2024-03-22T00:07:36;19.13;;;13.90;;
3801;SDS011;1916;51.798;12.246;2024-03-22T00:09:37;23.87;;;14.40;;
3801;SDS011;1916;51.798;12.246;2024-03-22T00:11:39;24.77;;;14.80;;
3801;SDS011;1916;51.798;12.246;2024-03-22T00:13:41;22.67;;;15.40;;
3801;SDS011;1916;51.798;12.246;2024-03-22T00:15:42;23.60;;;16.53;;
3801;SDS011;1916;51.798;12.246;2024-03-22T00:17:45;24.70;;;15.43;;
3801;SDS011;1916;51.798;12.246;2024-03-22T00:19:46;22.80;;;15.37;;
3801;SDS011;1916;51.798;12.246;2024-03-22T00:21:47;23.13;;;15.60;;
3801;SDS011;1916;51.798;12.246;2024-03-22T00:23:48;25.50;;;15.57;;
3801;SDS011;1916;51.798;12.246;2024-03-22T00:25:50;25.90;;;17.13;;
3801;SDS011;1916;51.798;12.246;2024-03-22T00:27:51;21.47;;;14.40;;
3801;SDS011;1916;51.798;12.246;2024-03-22T00:29:52;24.60;;;15.57;;
3801;SDS011;1916;51.798;12.246;2024-03-22T00:31:53;25.00;;;15.20;;
3801;SDS011;1916;51.798;12.246;2024-03-22T00:33:54;23.07;;;15.90;;
3801;SDS011;1916;51.798;12.246;2024-03-22T00:35:55;26.63;;;16.73;;
3801;SDS011;1916;51.798;12.246;2024-03-22T00:37:56;28.90;;;17.10;;
3801;SDS011;1916;51.798;12.246;2024-03-22T00:39:57;24.50;;;16.00;;
3801;SDS011;1916;51.798;12.246;2024-03-22T00:41:59;22.27;;;15.47;;
3801;SDS011;1916;51.798;12.246;2024-03-22T00:44:00;20.90;;;14.97;;
3801;SDS011;1916;51.798;12.246;2024-03-22T00:46:01;25.20;;;14.53;;
3801;SDS011;1916;51.798;12.246;2024-03-22T00:48:03;25.67;;;15.27;;
3801;SDS011;1916;51.798;12.246;2024-03-22T00:50:05;19.57;;;13.97;;
3801;SDS011;1916;51.798;12.246;2024-03-22T00:52:06;23.70;;;15.00;;
3801;SDS011;1916;51.798;12.246;2024-03-22T00:54:08;25.20;;;15.17;;
3801;SDS011;1916;51.798;12.246;2024-03-22T00:56:09;23.53;;;15.53;;
3801;SDS011;1916;51.798;12.246;2024-03-22T00:58:10;25.43;;;16.27;;
3801;SDS011;1916;51.798;12.246;2024-03-22T01:00:11;24.80;;;14.67;;
3801;SDS011;1916;51.798;12.246;2024-03-22T01:02:13;22.80;;;15.97;;
3801;SDS011;1916;51.798;12.246;2024-03-22T01:04:14;21.43;;;14.50;;
3801;SDS011;1916;51.798;12.246;2024-03-22T01:06:16;21.30;;;14.90;;
3801;SDS011;1916;51.798;12.246;2024-03-22T01:08:17;22.57;;;15.60;;
3801;SDS011;1916;51.798;12.246;2024-03-22T01:10:18;22.00;;;15.20;;
3801;SDS011;1916;51.798;12.246;2024-03-22T01:12:20;22.60;;;15.37;;
3801;SDS011;1916;51.798;12.246;2024-03-22T01:14:21;20.40;;;14.60;;
3801;SDS011;1916;51.798;12.246;2024-03-22T01:16:22;24.33;;;15.47;;
3801;SDS011;1916;51.798;12.246;2024-03-22T01:18:24;29.97;;;16.43;;
3801;SDS011;1916;51.798;12.246;2024-03-22T01:20:25;23.10;;;15.40;;
3801;SDS011;1916;51.798;12.246;2024-03-22T01:22:26;23.67;;;15.77;;
3801;SDS011;1916;51.798;12.246;2024-03-22T01:24:27;25.10;;;15.03;;
3801;SDS011;1916;51.798;12.246;2024-03-22T01:26:28;22.27;;;15.10;;
3801;SDS011;1916;51.798;12.246;2024-03-22T01:28:29;21.20;;;14.90;;
3801;SDS011;1916;51.798;12.246;2024-03-22T01:30:31;26.00;;;16.57;;
3801;SDS011;1916;51.798;12.246;2024-03-22T01:32:37;25.77;;;15.90;;
3801;SDS011;1916;51.798;12.246;2024-03-22T01:34:38;21.30;;;15.90;;
3801;SDS011;1916;51.798;12.246;2024-03-22T01:36:39;20.80;;;14.70;;
3801;SDS011;1916;51.798;12.246;2024-03-22T01:38:40;25.27;;;15.70;;
3801;SDS011;1916;51.798;12.246;2024-03-22T01:40:41;24.20;;;15.13;;
3801;SDS011;1916;51.798;12.246;2024-03-22T01:42:42;21.50;;;14.97;;
3801;SDS011;1916;51.798;12.246;2024-03-22T01:44:43;21.40;;;14.73;;
3801;SDS011;1916;51.798;12.246;2024-03-22T01:46:44;23.40;;;15.67;;
3801;SDS011;1916;51.798;12.246;2024-03-22T01:48:46;19.47;;;13.67;;
3801;SDS011;1916;51.798;12.246;2024-03-22T01:50:47;21.53;;;14.87;;
3801;SDS011;1916;51.798;12.246;2024-03-22T01:52:49;20.43;;;14.60;;
3801;SDS011;1916;51.798;12.246;2024-03-22T01:54:50;21.47;;;14.03;;
3801;SDS011;1916;51.798;12.246;2024-03-22T01:56:51;19.97;;;13.80;;
3801;SDS011;1916;51.798;12.246;2024-03-22T01:58:53;20.30;;;14.57;;
3801;SDS011;1916;51.798;12.246;2024-03-22T02:00:55;20.60;;;14.90;;
3801;SDS011;1916;51.798;12.246;2024-03-22T02:02:56;17.80;;;13.30;;
3801;SDS011;1916;51.798;12.246;2024-03-22T02:04:57;20.40;;;14.77;;
3801;SDS011;1916;51.798;12.246;2024-03-22T02:06:58;18.87;;;13.40;;
3801;SDS011;1916;51.798;12.246;2024-03-22T02:09:00;21.10;;;12.97;;
3801;SDS011;1916;51.798;12.246;2024-03-22T02:11:01;21.40;;;14.73;;
3801;SDS011;1916;51.798;12.246;2024-03-22T02:13:03;21.10;;;13.00;;
3801;SDS011;1916;51.798;12.246;2024-03-22T02:15:04;21.93;;;15.07;;
3801;SDS011;1916;51.798;12.246;2024-03-22T02:17:07;25.50;;;14.10;;
3801;SDS011;1916;51.798;12.246;2024-03-22T02:19:08;19.30;;;13.30;;
3801;SDS011;1916;51.798;12.246;2024-03-22T02:21:10;21.30;;;14.30;;
3801;SDS011;1916;51.798;12.246;2024-03-22T02:23:11;20.17;;;14.77;;
3801;SDS011;1916;51.798;12.246;2024-03-22T02:25:13;23.67;;;14.73;;
3801;SDS011;1916;51.798;12.246;2024-03-22T02:27:14;22.70;;;14.50;;
3801;SDS011;1916;51.798;12.246;2024-03-22T02:29:16;20.63;;;15.20;;
3801;SDS011;1916;51.798;12.246;2024-03-22T02:31:17;21.40;;;14.60;;
3801;SDS011;1916;51.798;12.246;2024-03-22T02:33:18;24.33;;;15.63;;
3801;SDS011;1916;51.798;12.246;2024-03-22T02:35:19;25.20;;;16.33;;
3801;SDS011;1916;51.798;12.246;2024-03-22T02:37:20;25.20;;;14.27;;
3801;SDS011;1916;51.798;12.246;2024-03-22T02:39:22;23.20;;;14.70;;
3801;SDS011;1916;51.798;12.246;2024-03-22T02:41:23;22.27;;;15.60;;
3801;SDS011;1916;51.798;12.246;2024-03-22T02:43:24;22.83;;;14.77;;
3801;SDS011;1916;51.798;12.246;2024-03-22T02:45:26;21.37;;;14.87;;
3801;SDS011;1916;51.798;12.246;2024-03-22T02:47:27;20.87;;;15.20;;
3801;SDS011;1916;51.798;12.246;2024-03-22T02:49:28;22.20;;;15.00;;
3801;SDS011;1916;51.798;12.246;2024-03-22T02:51:29;21.30;;;14.87;;
3801;SDS011;1916;51.798;12.246;2024-03-22T02:53:30;21.17;;;15.10;;
3801;SDS011;1916;51.798;12.246;2024-03-22T02:55:40;21.00;;;14.10;;
3801;SDS011;1916;51.798;12.246;2024-03-22T02:57:42;19.70;;;14.50;;
3801;SDS011;1916;51.798;12.246;2024-03-22T02:59:43;22.90;;;15.63;;
3801;SDS011;1916;51.798;12.246;2024-03-22T03:01:44;23.37;;;14.50;;
3801;SDS011;1916;51.798;12.246;2024-03-22T03:03:45;25.13;;;15.17;;
3801;SDS011;1916;51.798;12.246;2024-03-22T03:05:46;19.37;;;14.70;;
3801;SDS011;1916;51.798;12.246;2024-03-22T03:07:47;22.53;;;15.10;;
3801;SDS011;1916;51.798;12.246;2024-03-22T03:09:58;23.30;;;15.70;;
3801;SDS011;1916;51.798;12.246;2024-03-22T03:11:59;22.50;;;15.20;;
3801;SDS011;1916;51.798;12.246;2024-03-22T03:14:00;20.53;;;15.53;;
3801;SDS011;1916;51.798;12.246;2024-03-22T03:16:02;25.50;;;15.57;;
3801;SDS011;1916;51.798;12.246;2024-03-22T03:18:03;21.77;;;14.53;;
3801;SDS011;1916;51.798;12.246;2024-03-22T03:20:05;23.37;;;15.20;;
3801;SDS011;1916;51.798;12.246;2024-03-22T03:22:08;20.97;;;15.90;;
3801;SDS011;1916;51.798;12.246;2024-03-22T03:24:09;22.60;;;15.13;;
3801;SDS011;1916;51.798;12.246;2024-03-22T03:26:10;26.80;;;16.40;;
3801;SDS011;1916;51.798;12.246;2024-03-22T03:28:11;18.70;;;14.40;;
3801;SDS011;1916;51.798;12.246;2024-03-22T03:30:13;23.77;;;15.07;;
3801;SDS011;1916;51.798;12.246;2024-03-22T03:32:15;19.20;;;14.20;;
3801;SDS011;1916;51.798;12.246;2024-03-22T03:34:16;21.80;;;14.53;;
3801;SDS011;1916;51.798;12.246;2024-03-22T03:36:17;22.30;;;15.47;;
3801;SDS011;1916;51.798;12.246;2024-03-22T03:38:18;20.17;;;15.43;;
3801;SDS011;1916;51.798;12.246;2024-03-22T03:40:19;24.77;;;15.47;;
3801;SDS011;1916;51.798;12.246;2024-03-22T03:42:20;20.17;;;14.53;;
3801;SDS011;1916;51.798;12.246;2024-03-22T03:44:21;20.73;;;15.13;;
3801;SDS011;1916;51.798;12.246;2024-03-22T03:46:22;20.93;;;14.80;;
3801;SDS011;1916;51.798;12.246;2024-03-22T03:48:24;18.97;;;15.30;;
3801;SDS011;1916;51.798;12.246;2024-03-22T03:50:25;18.57;;;14.40;;
3801;SDS011;1916;51.798;12.246;2024-03-22T03:52:26;19.50;;;15.37;;
3801;SDS011;1916;51.798;12.246;2024-03-22T03:54:27;22.97;;;15.77;;
3801;SDS011;1916;51.798;12.246;2024-03-22T03:56:29;19.57;;;14.70;;
3801;SDS011;1916;51.798;12.246;2024-03-22T03:58:30;21.07;;;15.67;;
3801;SDS011;1916;51.798;12.246;2024-03-22T04:00:31;18.80;;;14.67;;
3801;SDS011;1916;51.798;12.246;2024-03-22T04:02:32;20.77;;;15.43;;
3801;SDS011;1916;51.798;12.246;2024-03-22T04:04:33;21.20;;;15.70;;
3801;SDS011;1916;51.798;12.246;2024-03-22T04:06:34;23.80;;;16.40;;
3801;SDS011;1916;51.798;12.246;2024-03-22T04:08:36;20.97;;;14.93;;
3801;SDS011;1916;51.798;12.246;2024-03-22T04:10:37;21.60;;;15.37;;
3801;SDS011;1916;51.798;12.246;2024-03-22T04:12:38;19.80;;;15.20;;
3801;SDS011;1916;51.798;12.246;2024-03-22T04:14:39;21.03;;;14.57;;
3801;SDS011;1916;51.798;12.246;2024-03-22T04:16:40;22.33;;;15.87;;
3801;SDS011;1916;51.798;12.246;2024-03-22T04:18:41;19.40;;;15.23;;
3801;SDS011;1916;51.798;12.246;2024-03-22T04:20:52;21.40;;;15.90;;
3801;SDS011;1916;51.798;12.246;2024-03-22T04:22:54;23.30;;;15.80;;
3801;SDS011;1916;51.798;12.246;2024-03-22T04:24:55;24.70;;;16.30;;
3801;SDS011;1916;51.798;12.246;2024-03-22T04:26:56;26.07;;;15.47;;
3801;SDS011;1916;51.798;12.246;2024-03-22T04:28:57;20.57;;;14.63;;
3801;SDS011;1916;51.798;12.246;2024-03-22T04:31:02;21.57;;;16.00;;
3801;SDS011;1916;51.798;12.246;2024-03-22T04:33:05;22.67;;;15.63;;
3801;SDS011;1916;51.798;12.246;2024-03-22T04:35:06;20.63;;;15.67;;
3801;SDS011;1916;51.798;12.246;2024-03-22T04:37:08;20.63;;;15.10;;
3801;SDS011;1916;51.798;12.246;2024-03-22T04:39:09;20.40;;;15.13;;
3801;SDS011;1916;51.798;12.246;2024-03-22T04:41:12;21.53;;;15.70;;
3801;SDS011;1916;51.798;12.246;2024-03-22T04:43:17;20.23;;;14.83;;
3801;SDS011;1916;51.798;12.246;2024-03-22T04:45:18;24.63;;;16.20;;
3801;SDS011;1916;51.798;12.246;2024-03-22T04:47:19;21.67;;;16.53;;
3801;SDS011;1916;51.798;12.246;2024-03-22T04:49:21;24.77;;;15.80;;
3801;SDS011;1916;51.798;12.246;2024-03-22T04:51:22;21.43;;;16.27;;
3801;SDS011;1916;51.798;12.246;2024-03-22T04:53:23;18.93;;;13.60;;
3801;SDS011;1916;51.798;12.246;2024-03-22T04:55:24;20.20;;;15.10;;
3801;SDS011;1916;51.798;12.246;2024-03-22T04:57:25;22.77;;;17.40;;
3801;SDS011;1916;51.798;12.246;2024-03-22T04:59:26;22.27;;;15.53;;
3801;SDS011;1916;51.798;12.246;2024-03-22T05:01:27;22.43;;;15.10;;
3801;SDS011;1916;51.798;12.246;2024-03-22T05:03:29;16.83;;;14.87;;
3801;SDS011;1916;51.798;12.246;2024-03-22T05:05:30;22.83;;;14.70;;
3801;SDS011;1916;51.798;12.246;2024-03-22T05:07:31;20.00;;;15.00;;
3801;SDS011;1916;51.798;12.246;2024-03-22T05:09:32;19.20;;;14.80;;
3801;SDS011;1916;51.798;12.246;2024-03-22T05:11:33;22.07;;;15.60;;
3801;SDS011;1916;51.798;12.246;2024-03-22T05:13:34;28.63;;;15.93;;
3801;SDS011;1916;51.798;12.246;2024-03-22T05:15:36;21.40;;;16.10;;
3801;SDS011;1916;51.798;12.246;2024-03-22T05:17:37;19.27;;;14.07;;
3801;SDS011;1916;51.798;12.246;2024-03-22T05:19:39;20.93;;;15.30;;
3801;SDS011;1916;51.798;12.246;2024-03-22T05:21:43;20.90;;;15.57;;
3801;SDS011;1916;51.798;12.246;2024-03-22T05:23:45;18.07;;;14.03;;
3801;SDS011;1916;51.798;12.246;2024-03-22T05:25:46;22.07;;;15.43;;
3801;SDS011;1916;51.798;12.246;2024-03-22T05:27:47;20.43;;;14.43;;
3801;SDS011;1916;51.798;12.246;2024-03-22T05:29:48;22.07;;;16.10;;
3801;SDS011;1916;51.798;12.246;2024-03-22T05:31:50;19.23;;;15.40;;
3801;SDS011;1916;51.798;12.246;2024-03-22T05:33:52;25.43;;;15.90;;
3801;SDS011;1916;51.798;12.246;2024-03-22T05:35:53;22.33;;;14.13;;
3801;SDS011;1916;51.798;12.246;2024-03-22T05:37:54;17.53;;;14.63;;
3801;SDS011;1916;51.798;12.246;2024-03-22T05:39:56;24.77;;;15.93;;
3801;SDS011;1916;51.798;12.246;2024-03-22T05:41:57;22.63;;;16.90;;
3801;SDS011;1916;51.798;12.246;2024-03-22T05:43:58;19.90;;;14.47;;
3801;SDS011;1916;51.798;12.246;2024-03-22T05:46:00;26.30;;;17.27;;
3801;SDS011;1916;51.798;12.246;2024-03-22T05:48:01;21.23;;;16.00;;
3801;SDS011;1916;51.798;12.246;2024-03-22T05:50:03;21.47;;;15.50;;
3801;SDS011;1916;51.798;12.246;2024-03-22T05:52:05;18.40;;;14.57;;
3801;SDS011;1916;51.798;12.246;2024-03-22T05:54:06;21.03;;;15.53;;
3801;SDS011;1916;51.798;12.246;2024-03-22T05:56:08;19.93;;;16.13;;
3801;SDS011;1916;51.798;12.246;2024-03-22T05:58:09;22.80;;;16.57;;
3801;SDS011;1916;51.798;12.246;2024-03-22T06:00:10;19.20;;;14.40;;
3801;SDS011;1916;51.798;12.246;2024-03-22T06:02:14;24.57;;;16.80;;
3801;SDS011;1916;51.798;12.246;2024-03-22T06:04:16;21.73;;;15.40;;
3801;SDS011;1916;51.798;12.246;2024-03-22T06:06:17;19.60;;;14.23;;
3801;SDS011;1916;51.798;12.246;2024-03-22T06:08:18;21.03;;;14.47;;
3801;SDS011;1916;51.798;12.246;2024-03-22T06:10:20;22.20;;;14.37;;
3801;SDS011;1916;51.798;12.246;2024-03-22T06:12:22;21.47;;;14.70;;
3801;SDS011;1916;51.798;12.246;2024-03-22T06:14:24;17.50;;;14.80;;
3801;SDS011;1916;51.798;12.246;2024-03-22T06:16:25;20.33;;;13.13;;
3801;SDS011;1916;51.798;12.246;2024-03-22T06:18:26;21.83;;;15.07;;
3801;SDS011;1916;51.798;12.246;2024-03-22T06:20:27;19.13;;;14.07;;
3801;SDS011;1916;51.798;12.246;2024-03-22T06:22:28;19.03;;;13.97;;
3801;SDS011;1916;51.798;12.246;2024-03-22T06:24:29;18.30;;;14.37;;
3801;SDS011;1916;51.798;12.246;2024-03-22T06:26:31;18.63;;;15.17;;
3801;SDS011;1916;51.798;12.246;2024-03-22T06:28:32;19.67;;;14.60;;
3801;SDS011;1916;51.798;12.246;2024-03-22T06:30:33;24.87;;;16.33;;
3801;SDS011;1916;51.798;12.246;2024-03-22T06:32:34;19.50;;;15.60;;
3801;SDS011;1916;51.798;12.246;2024-03-22T06:34:35;22.40;;;15.00;;
3801;SDS011;1916;51.798;12.246;2024-03-22T06:36:37;20.20;;;14.70;;
3801;SDS011;1916;51.798;12.246;2024-03-22T06:38:38;18.80;;;14.23;;
3801;SDS011;1916;51.798;12.246;2024-03-22T06:40:40;16.60;;;13.10;;
3801;SDS011;1916;51.798;12.246;2024-03-22T06:42:41;19.83;;;14.40;;
3801;SDS011;1916;51.798;12.246;2024-03-22T06:44:42;17.90;;;14.13;;
3801;SDS011;1916;51.798;12.246;2024-03-22T06:46:43;16.87;;;13.73;;
3801;SDS011;1916;51.798;12.246;2024-03-22T06:48:45;25.97;;;15.00;;
3801;SDS011;1916;51.798;12.246;2024-03-22T06:50:46;21.97;;;14.10;;
3801;SDS011;1916;51.798;12.246;2024-03-22T06:52:47;19.27;;;14.23;;
3801;SDS011;1916;51.798;12.246;2024-03-22T06:54:48;21.03;;;13.10;;
3801;SDS011;1916;51.798;12.246;2024-03-22T06:56:49;21.00;;;15.57;;
3801;SDS011;1916;51.798;12.246;2024-03-22T06:58:50;24.07;;;13.70;;
3801;SDS011;1916;51.798;12.246;2024-03-22T07:00:51;18.40;;;13.90;;
3801;SDS011;1916;51.798;12.246;2024-03-22T07:02:52;23.57;;;15.83;;
3801;SDS011;1916;51.798;12.246;2024-03-22T07:04:56;23.50;;;14.90;;
3801;SDS011;1916;51.798;12.246;2024-03-22T07:06:57;19.47;;;14.00;;
3801;SDS011;1916;51.798;12.246;2024-03-22T07:08:58;21.07;;;14.13;;
3801;SDS011;1916;51.798;12.246;2024-03-22T07:10:59;19.10;;;13.97;;
3801;SDS011;1916;51.798;12.246;2024-03-22T07:13:01;21.93;;;14.30;;
3801;SDS011;1916;51.798;12.246;2024-03-22T07:15:02;17.57;;;13.87;;
3801;SDS011;1916;51.798;12.246;2024-03-22T07:17:04;20.40;;;15.30;;
3801;SDS011;1916;51.798;12.246;2024-03-22T07:19:06;17.17;;;13.23;;
3801;SDS011;1916;51.798;12.246;2024-03-22T07:21:07;26.37;;;15.90;;
3801;SDS011;1916;51.798;12.246;2024-03-22T07:23:08;23.57;;;14.97;;
3801;SDS011;1916;51.798;12.246;2024-03-22T07:25:09;17.67;;;13.73;;
3801;SDS011;1916;51.798;12.246;2024-03-22T07:27:10;22.77;;;15.87;;
3801;SDS011;1916;51.798;12.246;2024-03-22T07:29:12;22.60;;;15.03;;
3801;SDS011;1916;51.798;12.246;2024-03-22T07:31:13;19.10;;;15.57;;
3801;SDS011;1916;51.798;12.246;2024-03-22T07:33:14;21.63;;;15.67;;
3801;SDS011;1916;51.798;12.246;2024-03-22T07:35:17;23.30;;;15.90;;
3801;SDS011;1916;51.798;12.246;2024-03-22T07:37:18;21.60;;;15.47;;
3801;SDS011;1916;51.798;12.246;2024-03-22T07:39:19;19.70;;;15.40;;
3801;SDS011;1916;51.798;12.246;2024-03-22T07:41:21;19.27;;;15.17;;
3801;SDS011;1916;51.798;12.246;2024-03-22T07:43:22;21.80;;;16.90;;
3801;SDS011;1916;51.798;12.246;2024-03-22T07:45:23;25.63;;;16.73;;
3801;SDS011;1916;51.798;12.246;2024-03-22T07:47:24;25.40;;;15.93;;
3801;SDS011;1916;51.798;12.246;2024-03-22T07:49:26;23.87;;;15.37;;
3801;SDS011;1916;51.798;12.246;2024-03-22T07:51:27;27.57;;;16.90;;
3801;SDS011;1916;51.798;12.246;2024-03-22T07:53:28;22.33;;;14.97;;
3801;SDS011;1916;51.798;12.246;2024-03-22T07:55:30;26.30;;;15.70;;
3801;SDS011;1916;51.798;12.246;2024-03-22T07:57:31;22.90;;;15.87;;
3801;SDS011;1916;51.798;12.246;2024-03-22T07:59:32;23.73;;;15.40;;
3801;SDS011;1916;51.798;12.246;2024-03-22T08:01:33;23.13;;;16.97;;
3801;SDS011;1916;51.798;12.246;2024-03-22T08:03:34;24.80;;;15.10;;
3801;SDS011;1916;51.798;12.246;2024-03-22T08:05:35;25.20;;;16.30;;
3801;SDS011;1916;51.798;12.246;2024-03-22T08:07:36;26.57;;;15.30;;
3801;SDS011;1916;51.798;12.246;2024-03-22T08:09:37;24.50;;;15.63;;
3801;SDS011;1916;51.798;12.246;2024-03-22T08:11:39;23.40;;;15.37;;
3801;SDS011;1916;51.798;12.246;2024-03-22T08:13:40;22.17;;;16.30;;
3801;SDS011;1916;51.798;12.246;2024-03-22T08:15:41;24.20;;;16.40;;
3801;SDS011;1916;51.798;12.246;2024-03-22T08:17:44;25.43;;;17.30;;
3801;SDS011;1916;51.798;12.246;2024-03-22T08:19:45;43.10;;;18.20;;
3801;SDS011;1916;51.798;12.246;2024-03-22T08:21:46;22.60;;;15.93;;
3801;SDS011;1916;51.798;12.246;2024-03-22T08:23:50;25.43;;;17.53;;
3801;SDS011;1916;51.798;12.246;2024-03-22T08:25:52;24.47;;;16.53;;
3801;SDS011;1916;51.798;12.246;2024-03-22T08:27:53;25.43;;;17.97;;
3801;SDS011;1916;51.798;12.246;2024-03-22T08:29:56;24.03;;;15.50;;
3801;SDS011;1916;51.798;12.246;2024-03-22T08:31:57;29.83;;;18.53;;
3801;SDS011;1916;51.798;12.246;2024-03-22T08:33:58;27.40;;;18.50;;
3801;SDS011;1916;51.798;12.246;2024-03-22T08:35:59;32.47;;;18.67;;
3801;SDS011;1916;51.798;12.246;2024-03-22T08:38:01;27.13;;;18.40;;
3801;SDS011;1916;51.798;12.246;2024-03-22T08:40:03;30.27;;;19.10;;
3801;SDS011;1916;51.798;12.246;2024-03-22T08:42:05;26.50;;;17.90;;
3801;SDS011;1916;51.798;12.246;2024-03-22T08:44:06;27.93;;;17.50;;
3801;SDS011;1916;51.798;12.246;2024-03-22T08:46:08;26.10;;;17.03;;
3801;SDS011;1916;51.798;12.246;2024-03-22T08:48:09;28.40;;;17.50;;
3801;SDS011;1916;51.798;12.246;2024-03-22T08:50:10;27.57;;;18.10;;
3801;SDS011;1916;51.798;12.246;2024-03-22T08:52:12;25.77;;;16.80;;
3801;SDS011;1916;51.798;12.246;2024-03-22T08:54:13;25.27;;;16.97;;
3801;SDS011;1916;51.798;12.246;2024-03-22T08:56:14;26.50;;;17.67;;
3801;SDS011;1916;51.798;12.246;2024-03-22T08:58:17;27.70;;;18.17;;
3801;SDS011;1916;51.798;12.246;2024-03-22T09:00:18;27.10;;;18.03;;
3801;SDS011;1916;51.798;12.246;2024-03-22T09:02:20;31.20;;;20.40;;
3801;SDS011;1916;51.798;12.246;2024-03-22T09:04:21;28.60;;;18.60;;
3801;SDS011;1916;51.798;12.246;2024-03-22T09:06:23;23.93;;;17.10;;
3801;SDS011;1916;51.798;12.246;2024-03-22T09:08:24;25.00;;;17.33;;
3801;SDS011;1916;51.798;12.246;2024-03-22T09:10:25;28.90;;;18.97;;
3801;SDS011;1916;51.798;12.246;2024-03-22T09:12:27;27.17;;;18.47;;
3801;SDS011;1916;51.798;12.246;2024-03-22T09:14:28;33.30;;;18.27;;
3801;SDS011;1916;51.798;12.246;2024-03-22T09:16:29;31.27;;;20.10;;
3801;SDS011;1916;51.798;12.246;2024-03-22T09:18:31;28.23;;;18.80;;
3801;SDS011;1916;51.798;12.246;2024-03-22T09:20:33;28.87;;;18.70;;
3801;SDS011;1916;51.798;12.246;2024-03-22T09:22:34;30.97;;;19.37;;
3801;SDS011;1916;51.798;12.246;2024-03-22T09:24:35;28.23;;;18.30;;
3801;SDS011;1916;51.798;12.246;2024-03-22T09:26:37;32.60;;;19.80;;
3801;SDS011;1916;51.798;12.246;2024-03-22T09:28:38;27.60;;;19.30;;
3801;SDS011;1916;51.798;12.246;2024-03-22T09:30:39;28.80;;;17.70;;
3801;SDS011;1916;51.798;12.246;2024-03-22T09:32:41;27.30;;;17.83;;
3801;SDS011;1916;51.798;12.246;2024-03-22T09:34:43;30.87;;;19.77;;
3801;SDS011;1916;51.798;12.246;2024-03-22T09:36:44;29.97;;;19.70;;
3801;SDS011;1916;51.798;12.246;2024-03-22T09:38:45;27.40;;;18.10;;
3801;SDS011;1916;51.798;12.246;2024-03-22T09:40:47;27.17;;;17.63;;
3801;SDS011;1916;51.798;12.246;2024-03-22T09:42:49;35.00;;;20.20;;
3801;SDS011;1916;51.798;12.246;2024-03-22T09:44:51;33.93;;;20.60;;
3801;SDS011;1916;51.798;12.246;2024-03-22T09:46:52;29.00;;;18.23;;
3801;SDS011;1916;51.798;12.246;2024-03-22T09:48:54;29.33;;;17.93;;
3801;SDS011;1916;51.798;12.246;2024-03-22T09:50:55;40.10;;;20.90;;
3801;SDS011;1916;51.798;12.246;2024-03-22T09:52:56;30.87;;;19.43;;
3801;SDS011;1916;51.798;12.246;2024-03-22T09:54:58;28.33;;;16.77;;
3801;SDS011;1916;51.798;12.246;2024-03-22T09:56:59;30.10;;;17.27;;
3801;SDS011;1916;51.798;12.246;2024-03-22T09:59:01;29.57;;;18.30;;
3801;SDS011;1916;51.798;12.246;2024-03-22T10:01:02;28.57;;;18.43;;
3801;SDS011;1916;51.798;12.246;2024-03-22T10:03:04;33.50;;;20.07;;
3801;SDS011;1916;51.798;12.246;2024-03-22T10:05:06;31.97;;;19.03;;
3801;SDS011;1916;51.798;12.246;2024-03-22T10:07:08;27.73;;;18.17;;
3801;SDS011;1916;51.798;12.246;2024-03-22T10:09:11;29.60;;;19.33;;
3801;SDS011;1916;51.798;12.246;2024-03-22T10:11:12;27.77;;;17.90;;
3801;SDS011;1916;51.798;12.246;2024-03-22T10:13:13;31.23;;;18.63;;
3801;SDS011;1916;51.798;12.246;2024-03-22T10:15:14;32.87;;;17.93;;
3801;SDS011;1916;51.798;12.246;2024-03-22T10:17:16;29.90;;;18.63;;
3801;SDS011;1916;51.798;12.246;2024-03-22T10:19:17;27.30;;;19.23;;
3801;SDS011;1916;51.798;12.246;2024-03-22T10:21:18;30.77;;;19.07;;
3801;SDS011;1916;51.798;12.246;2024-03-22T10:23:20;28.77;;;18.00;;
3801;SDS011;1916;51.798;12.246;2024-03-22T10:25:22;27.90;;;18.33;;
3801;SDS011;1916;51.798;12.246;2024-03-22T10:27:24;32.50;;;19.73;;
3801;SDS011;1916;51.798;12.246;2024-03-22T10:29:25;30.33;;;19.27;;
3801;SDS011;1916;51.798;12.246;2024-03-22T10:31:26;31.40;;;20.13;;
3801;SDS011;1916;51.798;12.246;2024-03-22T10:33:28;27.40;;;18.97;;
3801;SDS011;1916;51.798;12.246;2024-03-22T10:35:30;29.13;;;19.27;;
3801;SDS011;1916;51.798;12.246;2024-03-22T10:37:32;27.93;;;19.57;;
3801;SDS011;1916;51.798;12.246;2024-03-22T10:39:34;31.00;;;19.60;;
3801;SDS011;1916;51.798;12.246;2024-03-22T10:41:36;34.10;;;19.50;;
3801;SDS011;1916;51.798;12.246;2024-03-22T10:43:37;26.07;;;17.17;;
3801;SDS011;1916;51.798;12.246;2024-03-22T10:45:38;29.00;;;19.20;;
3801;SDS011;1916;51.798;12.246;2024-03-22T10:47:40;28.00;;;18.20;;
3801;SDS011;1916;51.798;12.246;2024-03-22T10:49:41;28.70;;;17.50;;
3801;SDS011;1916;51.798;12.246;2024-03-22T10:51:46;29.40;;;17.33;;
3801;SDS011;1916;51.798;12.246;2024-03-22T10:53:49;30.40;;;17.83;;
3801;SDS011;1916;51.798;12.246;2024-03-22T10:55:52;30.53;;;18.27;;
3801;SDS011;1916;51.798;12.246;2024-03-22T10:57:53;31.20;;;18.47;;
3801;SDS011;1916;51.798;12.246;2024-03-22T10:59:55;26.90;;;16.93;;
3801;SDS011;1916;51.798;12.246;2024-03-22T11:02:02;26.70;;;16.07;;
3801;SDS011;1916;51.798;12.246;2024-03-22T11:04:04;29.73;;;17.53;;
3801;SDS011;1916;51.798;12.246;2024-03-22T11:06:08;25.60;;;17.93;;
3801;SDS011;1916;51.798;12.246;2024-03-22T11:08:09;26.17;;;18.47;;
3801;SDS011;1916;51.798;12.246;2024-03-22T11:10:11;26.43;;;17.90;;
3801;SDS011;1916;51.798;12.246;2024-03-22T11:12:13;33.97;;;19.80;;
3801;SDS011;1916;51.798;12.246;2024-03-22T11:14:14;29.60;;;19.83;;
3801;SDS011;1916;51.798;12.246;2024-03-22T11:16:15;28.43;;;19.63;;
3801;SDS011;1916;51.798;12.246;2024-03-22T11:18:16;28.03;;;19.23;;
3801;SDS011;1916;51.798;12.246;2024-03-22T11:20:18;26.70;;;18.30;;
3801;SDS011;1916;51.798;12.246;2024-03-22T11:22:19;26.30;;;16.13;;
3801;SDS011;1916;51.798;12.246;2024-03-22T11:24:20;26.43;;;18.43;;
3801;SDS011;1916;51.798;12.246;2024-03-22T11:26:22;30.90;;;18.77;;
3801;SDS011;1916;51.798;12.246;2024-03-22T11:28:23;30.30;;;18.03;;
3801;SDS011;1916;51.798;12.246;2024-03-22T11:30:24;30.23;;;18.77;;
3801;SDS011;1916;51.798;12.246;2024-03-22T11:32:25;32.70;;;20.03;;
3801;SDS011;1916;51.798;12.246;2024-03-22T11:34:27;29.97;;;19.83;;
3801;SDS011;1916;51.798;12.246;2024-03-22T11:36:29;29.83;;;19.83;;
3801;SDS011;1916;51.798;12.246;2024-03-22T11:38:31;30.43;;;18.23;;
3801;SDS011;1916;51.798;12.246;2024-03-22T11:40:32;33.47;;;20.67;;
3801;SDS011;1916;51.798;12.246;2024-03-22T11:42:34;31.70;;;18.50;;
3801;SDS011;1916;51.798;12.246;2024-03-22T11:44:36;29.40;;;20.10;;
3801;SDS011;1916;51.798;12.246;2024-03-22T11:46:39;30.07;;;19.40;;
3801;SDS011;1916;51.798;12.246;2024-03-22T11:48:40;29.93;;;17.60;;
3801;SDS011;1916;51.798;12.246;2024-03-22T11:50:42;32.40;;;16.87;;
3801;SDS011;1916;51.798;12.246;2024-03-22T11:52:43;30.40;;;17.90;;
3801;SDS011;1916;51.798;12.246;2024-03-22T11:54:50;27.10;;;19.40;;
3801;SDS011;1916;51.798;12.246;2024-03-22T11:56:55;25.63;;;17.07;;
3801;SDS011;1916;51.798;12.246;2024-03-22T11:58:58;32.07;;;17.50;;
3801;SDS011;1916;51.798;12.246;2024-03-22T12:00:59;25.53;;;18.87;;